sensor_id;sensor_type;location;lat;lon;timestamp;P1;durP1;ratioP1;P2;durP2;ratioP2
56599;SDS011;51832;48.152;11.530;2024-02-21T00:01:28;5.28;;;1.65;;
56599;SDS011;51832;48.152;11.530;2024-02-21T00:06:28;4.05;;;1.80;;
56599;SDS011;51832;48.152;11.530;2024-02-21T00:11:28;3.90;;;1.67;;
56599;SDS011;51832;48.152;11.530;2024-02-21T00:16:29;3.42;;;1.70;;
56599;SDS011;51832;48.152;11.530;2024-02-21T00:21:29;4.32;;;1.90;;
56599;SDS011;51832;48.152;11.530;2024-02-21T00:26:30;4.80;;;1.98;;
56599;SDS011;51832;48.152;11.530;2024-02-21T00:31:30;6.30;;;2.03;;
56599;SDS011;51832;48.152;11.530;2024-02-21T00:36:31;5.15;;;2.10;;
56599;SDS011;51832;48.152;11.530;2024-02-21T00:41:31;4.90;;;1.92;;
56599;SDS011;51832;48.152;11.530;2024-02-21T00:46:32;3.13;;;1.80;;
56599;SDS011;51832;48.152;11.530;2024-02-21T00:51:32;5.53;;;1.73;;
56599;SDS011;51832;48.152;11.530;2024-02-21T00:56:33;4.60;;;2.00;;
56599;SDS011;51832;48.152;11.530;2024-02-21T01:01:33;5.10;;;2.22;;
56599;SDS011;51832;48.152;11.530;2024-02-21T01:06:34;5.40;;;1.70;;
56599;SDS011;51832;48.152;11.530;2024-02-21T01:11:34;5.40;;;1.88;;
56599;SDS011;51832;48.152;11.530;2024-02-21T01:16:35;5.30;;;1.90;;
56599;SDS011;51832;48.152;11.530;2024-02-21T01:21:35;2.05;;;1.30;;
56599;SDS011;51832;48.152;11.530;2024-02-21T01:26:36;3.33;;;2.00;;
56599;SDS011;51832;48.152;11.530;2024-02-21T01:31:36;5.05;;;1.75;;
56599;SDS011;51832;48.152;11.530;2024-02-21T01:36:36;3.75;;;2.00;;
56599;SDS011;51832;48.152;11.530;2024-02-21T01:41:37;2.85;;;1.60;;
56599;SDS011;51832;48.152;11.530;2024-02-21T01:46:38;4.82;;;1.88;;
56599;SDS011;51832;48.152;11.530;2024-02-21T01:51:38;2.78;;;1.98;;
56599;SDS011;51832;48.152;11.530;2024-02-21T01:56:40;2.40;;;1.52;;
56599;SDS011;51832;48.152;11.530;2024-02-21T02:01:40;5.30;;;1.90;;
56599;SDS011;51832;48.152;11.530;2024-02-21T02:06:41;2.85;;;1.42;;
56599;SDS011;51832;48.152;11.530;2024-02-21T02:11:43;4.28;;;1.80;;
56599;SDS011;51832;48.152;11.530;2024-02-21T02:16:46;1.75;;;1.45;;
56599;SDS011;51832;48.152;11.530;2024-02-21T02:21:49;3.22;;;1.52;;
56599;SDS011;51832;48.152;11.530;2024-02-21T02:26:55;2.25;;;1.58;;
56599;SDS011;51832;48.152;11.530;2024-02-21T02:31:56;3.55;;;1.42;;
56599;SDS011;51832;48.152;11.530;2024-02-21T02:36:57;1.88;;;1.45;;
56599;SDS011;51832;48.152;11.530;2024-02-21T02:41:57;1.23;;;1.13;;
56599;SDS011;51832;48.152;11.530;2024-02-21T02:46:57;6.60;;;2.03;;
56599;SDS011;51832;48.152;11.530;2024-02-21T02:51:58;2.33;;;1.50;;
56599;SDS011;51832;48.152;11.530;2024-02-21T02:56:58;3.78;;;1.55;;
56599;SDS011;51832;48.152;11.530;2024-02-21T03:01:59;2.13;;;1.50;;
56599;SDS011;51832;48.152;11.530;2024-02-21T03:06:59;1.98;;;1.10;;
56599;SDS011;51832;48.152;11.530;2024-02-21T03:12:00;2.40;;;1.45;;
56599;SDS011;51832;48.152;11.530;2024-02-21T03:17:02;3.50;;;1.30;;
56599;SDS011;51832;48.152;11.530;2024-02-21T03:22:03;4.07;;;1.52;;
56599;SDS011;51832;48.152;11.530;2024-02-21T03:27:06;1.13;;;0.80;;
56599;SDS011;51832;48.152;11.530;2024-02-21T03:32:06;2.03;;;1.27;;
56599;SDS011;51832;48.152;11.530;2024-02-21T03:37:07;3.20;;;1.38;;
56599;SDS011;51832;48.152;11.530;2024-02-21T03:42:07;2.60;;;1.17;;
56599;SDS011;51832;48.152;11.530;2024-02-21T03:47:08;2.67;;;1.13;;
56599;SDS011;51832;48.152;11.530;2024-02-21T03:52:10;2.38;;;1.20;;
56599;SDS011;51832;48.152;11.530;2024-02-21T03:57:11;1.60;;;1.20;;
56599;SDS011;51832;48.152;11.530;2024-02-21T04:02:11;3.63;;;1.38;;
56599;SDS011;51832;48.152;11.530;2024-02-21T04:07:15;2.33;;;1.00;;
56599;SDS011;51832;48.152;11.530;2024-02-21T04:12:15;1.17;;;1.08;;
56599;SDS011;51832;48.152;11.530;2024-02-21T04:17:16;3.58;;;1.10;;
56599;SDS011;51832;48.152;11.530;2024-02-21T04:22:16;2.10;;;1.00;;
56599;SDS011;51832;48.152;11.530;2024-02-21T04:27:17;2.55;;;1.20;;
56599;SDS011;51832;48.152;11.530;2024-02-21T04:32:17;1.63;;;1.05;;
56599;SDS011;51832;48.152;11.530;2024-02-21T04:37:18;1.52;;;1.00;;
56599;SDS011;51832;48.152;11.530;2024-02-21T04:42:18;1.63;;;1.10;;
56599;SDS011;51832;48.152;11.530;2024-02-21T04:47:19;2.05;;;1.15;;
56599;SDS011;51832;48.152;11.530;2024-02-21T04:52:20;2.25;;;1.58;;
56599;SDS011;51832;48.152;11.530;2024-02-21T04:57:20;1.50;;;1.00;;
56599;SDS011;51832;48.152;11.530;2024-02-21T05:02:20;1.17;;;0.90;;
56599;SDS011;51832;48.152;11.530;2024-02-21T05:12:24;2.45;;;1.15;;
56599;SDS011;51832;48.152;11.530;2024-02-21T05:17:24;1.02;;;0.80;;
56599;SDS011;51832;48.152;11.530;2024-02-21T05:22:25;1.08;;;0.90;;
56599;SDS011;51832;48.152;11.530;2024-02-21T05:27:25;1.98;;;0.88;;
56599;SDS011;51832;48.152;11.530;2024-02-21T05:32:26;0.90;;;0.80;;
56599;SDS011;51832;48.152;11.530;2024-02-21T05:37:27;3.05;;;0.90;;
56599;SDS011;51832;48.152;11.530;2024-02-21T05:42:27;1.33;;;1.08;;
56599;SDS011;51832;48.152;11.530;2024-02-21T05:47:28;0.93;;;0.90;;
56599;SDS011;51832;48.152;11.530;2024-02-21T05:52:29;2.40;;;1.33;;
56599;SDS011;51832;48.152;11.530;2024-02-21T05:57:29;1.83;;;1.52;;
56599;SDS011;51832;48.152;11.530;2024-02-21T06:02:29;0.90;;;0.80;;
56599;SDS011;51832;48.152;11.530;2024-02-21T06:07:30;2.70;;;1.13;;
56599;SDS011;51832;48.152;11.530;2024-02-21T06:12:31;2.83;;;0.90;;
56599;SDS011;51832;48.152;11.530;2024-02-21T06:17:31;2.22;;;1.25;;
56599;SDS011;51832;48.152;11.530;2024-02-21T06:22:32;1.90;;;1.20;;
56599;SDS011;51832;48.152;11.530;2024-02-21T06:27:32;1.70;;;0.93;;
56599;SDS011;51832;48.152;11.530;2024-02-21T06:32:33;2.45;;;1.30;;
56599;SDS011;51832;48.152;11.530;2024-02-21T06:37:33;1.80;;;1.05;;
56599;SDS011;51832;48.152;11.530;2024-02-21T06:42:34;1.88;;;1.20;;
56599;SDS011;51832;48.152;11.530;2024-02-21T06:47:34;2.05;;;1.10;;
56599;SDS011;51832;48.152;11.530;2024-02-21T06:52:35;1.80;;;1.00;;
56599;SDS011;51832;48.152;11.530;2024-02-21T06:57:36;2.38;;;0.90;;
56599;SDS011;51832;48.152;11.530;2024-02-21T07:02:37;2.72;;;1.10;;
56599;SDS011;51832;48.152;11.530;2024-02-21T07:07:37;3.95;;;1.20;;
56599;SDS011;51832;48.152;11.530;2024-02-21T07:12:38;1.25;;;0.95;;
56599;SDS011;51832;48.152;11.530;2024-02-21T07:17:43;1.23;;;1.02;;
56599;SDS011;51832;48.152;11.530;2024-02-21T07:22:43;1.73;;;1.10;;
56599;SDS011;51832;48.152;11.530;2024-02-21T07:27:44;1.45;;;1.02;;
56599;SDS011;51832;48.152;11.530;2024-02-21T07:32:45;2.72;;;1.27;;
56599;SDS011;51832;48.152;11.530;2024-02-21T07:37:45;2.05;;;1.33;;
56599;SDS011;51832;48.152;11.530;2024-02-21T07:42:46;1.00;;;0.88;;
56599;SDS011;51832;48.152;11.530;2024-02-21T07:47:46;1.95;;;1.00;;
56599;SDS011;51832;48.152;11.530;2024-02-21T07:52:46;4.38;;;1.23;;
56599;SDS011;51832;48.152;11.530;2024-02-21T07:57:47;1.38;;;1.02;;
56599;SDS011;51832;48.152;11.530;2024-02-21T08:02:48;2.20;;;1.20;;
56599;SDS011;51832;48.152;11.530;2024-02-21T08:07:49;1.60;;;0.98;;
56599;SDS011;51832;48.152;11.530;2024-02-21T08:12:49;1.40;;;0.80;;
56599;SDS011;51832;48.152;11.530;2024-02-21T08:17:50;1.23;;;0.95;;
56599;SDS011;51832;48.152;11.530;2024-02-21T08:22:50;2.00;;;0.88;;
56599;SDS011;51832;48.152;11.530;2024-02-21T08:27:51;5.40;;;0.90;;
56599;SDS011;51832;48.152;11.530;2024-02-21T08:32:51;3.75;;;1.15;;
56599;SDS011;51832;48.152;11.530;2024-02-21T08:37:54;1.02;;;0.77;;
56599;SDS011;51832;48.152;11.530;2024-02-21T08:42:54;4.65;;;2.47;;
56599;SDS011;51832;48.152;11.530;2024-02-21T08:47:54;1.10;;;0.68;;
56599;SDS011;51832;48.152;11.530;2024-02-21T08:52:55;3.47;;;1.70;;
56599;SDS011;51832;48.152;11.530;2024-02-21T08:57:55;1.42;;;0.80;;
56599;SDS011;51832;48.152;11.530;2024-02-21T09:02:56;2.70;;;1.10;;
56599;SDS011;51832;48.152;11.530;2024-02-21T09:07:56;1.20;;;1.00;;
56599;SDS011;51832;48.152;11.530;2024-02-21T09:12:57;1.92;;;1.00;;
56599;SDS011;51832;48.152;11.530;2024-02-21T09:17:57;1.60;;;1.00;;
56599;SDS011;51832;48.152;11.530;2024-02-21T09:22:58;3.22;;;1.00;;
56599;SDS011;51832;48.152;11.530;2024-02-21T09:27:59;1.85;;;0.90;;
56599;SDS011;51832;48.152;11.530;2024-02-21T09:33:01;1.23;;;0.70;;
56599;SDS011;51832;48.152;11.530;2024-02-21T09:38:02;1.15;;;0.98;;
56599;SDS011;51832;48.152;11.530;2024-02-21T09:43:03;3.33;;;0.73;;
56599;SDS011;51832;48.152;11.530;2024-02-21T09:53:13;0.70;;;0.70;;
56599;SDS011;51832;48.152;11.530;2024-02-21T09:58:15;1.88;;;0.85;;
56599;SDS011;51832;48.152;11.530;2024-02-21T10:03:15;0.60;;;0.60;;
56599;SDS011;51832;48.152;11.530;2024-02-21T10:08:16;1.88;;;0.60;;
56599;SDS011;51832;48.152;11.530;2024-02-21T10:13:30;1.27;;;0.70;;
56599;SDS011;51832;48.152;11.530;2024-02-21T10:23:48;2.25;;;0.68;;
56599;SDS011;51832;48.152;11.530;2024-02-21T10:28:49;1.90;;;0.60;;
56599;SDS011;51832;48.152;11.530;2024-02-21T10:33:58;1.60;;;0.60;;
56599;SDS011;51832;48.152;11.530;2024-02-21T10:44:05;0.60;;;0.60;;
56599;SDS011;51832;48.152;11.530;2024-02-21T10:49:10;2.67;;;0.70;;
56599;SDS011;51832;48.152;11.530;2024-02-21T10:59:26;3.15;;;1.25;;
56599;SDS011;51832;48.152;11.530;2024-02-21T11:04:29;0.47;;;0.40;;
56599;SDS011;51832;48.152;11.530;2024-02-21T11:09:32;0.97;;;0.53;;
56599;SDS011;51832;48.152;11.530;2024-02-21T11:14:33;1.15;;;0.60;;
56599;SDS011;51832;48.152;11.530;2024-02-21T11:19:37;1.77;;;0.50;;
56599;SDS011;51832;48.152;11.530;2024-02-21T11:24:37;1.08;;;0.60;;
56599;SDS011;51832;48.152;11.530;2024-02-21T11:29:44;0.88;;;0.50;;
56599;SDS011;51832;48.152;11.530;2024-02-21T11:34:54;0.68;;;0.50;;
56599;SDS011;51832;48.152;11.530;2024-02-21T11:40:02;1.15;;;0.90;;
56599;SDS011;51832;48.152;11.530;2024-02-21T11:45:03;1.13;;;0.52;;
56599;SDS011;51832;48.152;11.530;2024-02-21T11:50:04;0.60;;;0.50;;
56599;SDS011;51832;48.152;11.530;2024-02-21T11:55:14;0.40;;;0.40;;
56599;SDS011;51832;48.152;11.530;2024-02-21T12:00:17;3.92;;;2.25;;
56599;SDS011;51832;48.152;11.530;2024-02-21T12:05:22;1.17;;;0.70;;
56599;SDS011;51832;48.152;11.530;2024-02-21T12:10:22;1.00;;;0.50;;
56599;SDS011;51832;48.152;11.530;2024-02-21T12:15:23;0.65;;;0.50;;
56599;SDS011;51832;48.152;11.530;2024-02-21T12:20:23;1.02;;;0.50;;
56599;SDS011;51832;48.152;11.530;2024-02-21T12:25:25;0.65;;;0.40;;
56599;SDS011;51832;48.152;11.530;2024-02-21T12:30:27;0.50;;;0.50;;
56599;SDS011;51832;48.152;11.530;2024-02-21T12:35:27;0.60;;;0.50;;
56599;SDS011;51832;48.152;11.530;2024-02-21T12:40:28;1.00;;;0.50;;
56599;SDS011;51832;48.152;11.530;2024-02-21T12:45:32;1.23;;;0.40;;
56599;SDS011;51832;48.152;11.530;2024-02-21T12:50:34;2.42;;;1.25;;
56599;SDS011;51832;48.152;11.530;2024-02-21T12:55:34;0.68;;;0.43;;
56599;SDS011;51832;48.152;11.530;2024-02-21T13:00:35;1.25;;;0.50;;
56599;SDS011;51832;48.152;11.530;2024-02-21T13:05:36;1.08;;;0.80;;
56599;SDS011;51832;48.152;11.530;2024-02-21T13:10:37;0.85;;;0.40;;
56599;SDS011;51832;48.152;11.530;2024-02-21T13:15:38;2.35;;;0.80;;
56599;SDS011;51832;48.152;11.530;2024-02-21T13:20:44;0.45;;;0.40;;
56599;SDS011;51832;48.152;11.530;2024-02-21T13:25:44;0.88;;;0.50;;
56599;SDS011;51832;48.152;11.530;2024-02-21T13:30:45;0.40;;;0.40;;
56599;SDS011;51832;48.152;11.530;2024-02-21T13:35:46;0.52;;;0.50;;
56599;SDS011;51832;48.152;11.530;2024-02-21T13:40:46;2.72;;;0.70;;
56599;SDS011;51832;48.152;11.530;2024-02-21T13:46:05;1.17;;;0.40;;
56599;SDS011;51832;48.152;11.530;2024-02-21T13:51:09;0.83;;;0.40;;
56599;SDS011;51832;48.152;11.530;2024-02-21T13:56:11;0.52;;;0.52;;
56599;SDS011;51832;48.152;11.530;2024-02-21T14:01:12;1.20;;;0.40;;
56599;SDS011;51832;48.152;11.530;2024-02-21T14:06:12;2.65;;;0.80;;
56599;SDS011;51832;48.152;11.530;2024-02-21T14:11:13;0.60;;;0.60;;
56599;SDS011;51832;48.152;11.530;2024-02-21T14:16:14;1.13;;;0.50;;
56599;SDS011;51832;48.152;11.530;2024-02-21T14:21:15;1.27;;;0.70;;
56599;SDS011;51832;48.152;11.530;2024-02-21T14:26:15;0.90;;;0.70;;
56599;SDS011;51832;48.152;11.530;2024-02-21T14:31:16;0.98;;;0.70;;
56599;SDS011;51832;48.152;11.530;2024-02-21T14:36:17;1.35;;;0.60;;
56599;SDS011;51832;48.152;11.530;2024-02-21T14:41:18;1.13;;;0.70;;
56599;SDS011;51832;48.152;11.530;2024-02-21T14:46:18;0.75;;;0.65;;
56599;SDS011;51832;48.152;11.530;2024-02-21T14:51:19;1.65;;;0.60;;
56599;SDS011;51832;48.152;11.530;2024-02-21T14:56:19;2.05;;;1.40;;
56599;SDS011;51832;48.152;11.530;2024-02-21T15:01:20;2.78;;;0.90;;
56599;SDS011;51832;48.152;11.530;2024-02-21T15:06:20;1.85;;;0.80;;
56599;SDS011;51832;48.152;11.530;2024-02-21T15:11:21;2.03;;;1.00;;
56599;SDS011;51832;48.152;11.530;2024-02-21T15:16:22;1.15;;;0.73;;
56599;SDS011;51832;48.152;11.530;2024-02-21T15:21:23;0.98;;;0.80;;
56599;SDS011;51832;48.152;11.530;2024-02-21T15:26:23;0.98;;;0.80;;
56599;SDS011;51832;48.152;11.530;2024-02-21T15:31:24;1.40;;;0.70;;
56599;SDS011;51832;48.152;11.530;2024-02-21T15:36:25;1.80;;;0.70;;
56599;SDS011;51832;48.152;11.530;2024-02-21T15:41:25;3.63;;;1.58;;
56599;SDS011;51832;48.152;11.530;2024-02-21T15:46:26;0.75;;;0.63;;
56599;SDS011;51832;48.152;11.530;2024-02-21T15:51:26;2.88;;;0.75;;
56599;SDS011;51832;48.152;11.530;2024-02-21T15:56:27;2.30;;;0.73;;
56599;SDS011;51832;48.152;11.530;2024-02-21T16:01:28;1.88;;;0.90;;
56599;SDS011;51832;48.152;11.530;2024-02-21T16:06:33;1.92;;;1.15;;
56599;SDS011;51832;48.152;11.530;2024-02-21T16:11:34;2.90;;;1.63;;
56599;SDS011;51832;48.152;11.530;2024-02-21T16:16:35;8.43;;;3.72;;
56599;SDS011;51832;48.152;11.530;2024-02-21T16:21:38;2.60;;;1.60;;
56599;SDS011;51832;48.152;11.530;2024-02-21T16:26:39;3.47;;;1.90;;
56599;SDS011;51832;48.152;11.530;2024-02-21T16:31:40;1.98;;;1.05;;
56599;SDS011;51832;48.152;11.530;2024-02-21T16:36:40;1.20;;;0.80;;
56599;SDS011;51832;48.152;11.530;2024-02-21T16:41:40;2.20;;;0.80;;
56599;SDS011;51832;48.152;11.530;2024-02-21T16:46:41;1.17;;;0.90;;
56599;SDS011;51832;48.152;11.530;2024-02-21T16:51:42;4.22;;;2.58;;
56599;SDS011;51832;48.152;11.530;2024-02-21T16:56:42;1.13;;;1.00;;
56599;SDS011;51832;48.152;11.530;2024-02-21T17:01:43;2.15;;;0.95;;
56599;SDS011;51832;48.152;11.530;2024-02-21T17:06:45;2.35;;;1.50;;
56599;SDS011;51832;48.152;11.530;2024-02-21T17:11:46;3.95;;;1.92;;
56599;SDS011;51832;48.152;11.530;2024-02-21T17:16:47;2.05;;;1.35;;
56599;SDS011;51832;48.152;11.530;2024-02-21T17:21:48;3.20;;;1.75;;
56599;SDS011;51832;48.152;11.530;2024-02-21T17:26:49;4.03;;;1.80;;
56599;SDS011;51832;48.152;11.530;2024-02-21T17:31:49;3.10;;;1.63;;
56599;SDS011;51832;48.152;11.530;2024-02-21T17:36:50;3.08;;;1.58;;
56599;SDS011;51832;48.152;11.530;2024-02-21T17:41:50;3.08;;;1.65;;
56599;SDS011;51832;48.152;11.530;2024-02-21T17:46:53;5.20;;;2.70;;
56599;SDS011;51832;48.152;11.530;2024-02-21T17:51:53;2.15;;;1.90;;
56599;SDS011;51832;48.152;11.530;2024-02-21T17:56:54;3.10;;;2.00;;
56599;SDS011;51832;48.152;11.530;2024-02-21T18:01:54;4.97;;;2.78;;
56599;SDS011;51832;48.152;11.530;2024-02-21T18:06:54;5.10;;;2.85;;
56599;SDS011;51832;48.152;11.530;2024-02-21T18:11:55;4.45;;;1.80;;
56599;SDS011;51832;48.152;11.530;2024-02-21T18:16:56;2.70;;;1.70;;
56599;SDS011;51832;48.152;11.530;2024-02-21T18:21:56;6.25;;;2.00;;
56599;SDS011;51832;48.152;11.530;2024-02-21T18:26:57;4.00;;;1.60;;
56599;SDS011;51832;48.152;11.530;2024-02-21T18:31:57;3.35;;;2.10;;
56599;SDS011;51832;48.152;11.530;2024-02-21T18:36:59;3.45;;;2.60;;
56599;SDS011;51832;48.152;11.530;2024-02-21T18:42:00;4.75;;;2.35;;
56599;SDS011;51832;48.152;11.530;2024-02-21T18:47:00;4.40;;;2.20;;
56599;SDS011;51832;48.152;11.530;2024-02-21T18:52:00;3.65;;;2.38;;
56599;SDS011;51832;48.152;11.530;2024-02-21T18:57:01;2.20;;;1.90;;
56599;SDS011;51832;48.152;11.530;2024-02-21T19:02:01;3.83;;;2.30;;
56599;SDS011;51832;48.152;11.530;2024-02-21T19:07:02;3.17;;;2.28;;
56599;SDS011;51832;48.152;11.530;2024-02-21T19:12:03;2.88;;;1.80;;
56599;SDS011;51832;48.152;11.530;2024-02-21T19:17:04;5.22;;;2.35;;
56599;SDS011;51832;48.152;11.530;2024-02-21T19:22:04;3.42;;;2.22;;
56599;SDS011;51832;48.152;11.530;2024-02-21T19:27:05;2.47;;;1.80;;
56599;SDS011;51832;48.152;11.530;2024-02-21T19:32:06;4.07;;;1.90;;
56599;SDS011;51832;48.152;11.530;2024-02-21T19:37:07;3.85;;;2.20;;
56599;SDS011;51832;48.152;11.530;2024-02-21T19:42:07;5.40;;;2.10;;
56599;SDS011;51832;48.152;11.530;2024-02-21T19:47:07;3.90;;;2.50;;
56599;SDS011;51832;48.152;11.530;2024-02-21T19:52:09;3.92;;;2.50;;
56599;SDS011;51832;48.152;11.530;2024-02-21T19:57:09;3.92;;;2.25;;
56599;SDS011;51832;48.152;11.530;2024-02-21T20:02:10;5.00;;;2.85;;
56599;SDS011;51832;48.152;11.530;2024-02-21T20:07:10;4.25;;;2.15;;
56599;SDS011;51832;48.152;11.530;2024-02-21T20:12:11;3.45;;;2.10;;
56599;SDS011;51832;48.152;11.530;2024-02-21T20:17:13;3.72;;;2.70;;
56599;SDS011;51832;48.152;11.530;2024-02-21T20:22:13;3.25;;;2.10;;
56599;SDS011;51832;48.152;11.530;2024-02-21T20:27:14;2.97;;;1.88;;
56599;SDS011;51832;48.152;11.530;2024-02-21T20:32:14;2.72;;;1.80;;
56599;SDS011;51832;48.152;11.530;2024-02-21T20:37:15;2.55;;;1.95;;
56599;SDS011;51832;48.152;11.530;2024-02-21T20:42:17;2.85;;;1.92;;
56599;SDS011;51832;48.152;11.530;2024-02-21T20:47:18;3.13;;;1.90;;
56599;SDS011;51832;48.152;11.530;2024-02-21T20:52:19;2.17;;;1.80;;
56599;SDS011;51832;48.152;11.530;2024-02-21T20:57:20;3.13;;;1.90;;
56599;SDS011;51832;48.152;11.530;2024-02-21T21:02:21;3.58;;;2.20;;
56599;SDS011;51832;48.152;11.530;2024-02-21T21:07:21;3.30;;;2.05;;
56599;SDS011;51832;48.152;11.530;2024-02-21T21:12:22;2.63;;;2.10;;
56599;SDS011;51832;48.152;11.530;2024-02-21T21:17:22;3.22;;;2.00;;
56599;SDS011;51832;48.152;11.530;2024-02-21T21:22:23;3.08;;;1.98;;
56599;SDS011;51832;48.152;11.530;2024-02-21T21:27:24;2.75;;;2.00;;
56599;SDS011;51832;48.152;11.530;2024-02-21T21:32:26;2.80;;;1.85;;
56599;SDS011;51832;48.152;11.530;2024-02-21T21:37:27;3.08;;;1.70;;
56599;SDS011;51832;48.152;11.530;2024-02-21T21:42:28;3.53;;;1.75;;
56599;SDS011;51832;48.152;11.530;2024-02-21T21:47:28;2.45;;;1.73;;
56599;SDS011;51832;48.152;11.530;2024-02-21T21:52:29;2.42;;;1.92;;
56599;SDS011;51832;48.152;11.530;2024-02-21T21:57:31;2.05;;;1.55;;
56599;SDS011;51832;48.152;11.530;2024-02-21T22:02:31;1.85;;;1.60;;
56599;SDS011;51832;48.152;11.530;2024-02-21T22:07:32;2.45;;;1.63;;
56599;SDS011;51832;48.152;11.530;2024-02-21T22:12:32;3.20;;;1.90;;
56599;SDS011;51832;48.152;11.530;2024-02-21T22:17:33;3.95;;;1.60;;
56599;SDS011;51832;48.152;11.530;2024-02-21T22:22:34;2.20;;;1.50;;
56599;SDS011;51832;48.152;11.530;2024-02-21T22:27:35;2.45;;;1.60;;
56599;SDS011;51832;48.152;11.530;2024-02-21T22:32:35;2.88;;;1.73;;
56599;SDS011;51832;48.152;11.530;2024-02-21T22:37:36;2.28;;;1.73;;
56599;SDS011;51832;48.152;11.530;2024-02-21T22:42:36;2.50;;;1.83;;
56599;SDS011;51832;48.152;11.530;2024-02-21T22:47:37;2.65;;;1.50;;
56599;SDS011;51832;48.152;11.530;2024-02-21T22:52:37;2.30;;;1.50;;
56599;SDS011;51832;48.152;11.530;2024-02-21T22:57:38;1.33;;;0.90;;
56599;SDS011;51832;48.152;11.530;2024-02-21T23:02:40;2.28;;;1.65;;
56599;SDS011;51832;48.152;11.530;2024-02-21T23:07:44;2.42;;;1.50;;
56599;SDS011;51832;48.152;11.530;2024-02-21T23:12:49;1.80;;;1.17;;
56599;SDS011;51832;48.152;11.530;2024-02-21T23:17:50;4.45;;;2.67;;
56599;SDS011;51832;48.152;11.530;2024-02-21T23:22:50;2.53;;;1.75;;
56599;SDS011;51832;48.152;11.530;2024-02-21T23:27:51;2.20;;;1.55;;
56599;SDS011;51832;48.152;11.530;2024-02-21T23:32:51;2.40;;;1.20;;
56599;SDS011;51832;48.152;11.530;2024-02-21T23:37:52;1.48;;;1.10;;
56599;SDS011;51832;48.152;11.530;2024-02-21T23:42:53;2.60;;;1.10;;
56599;SDS011;51832;48.152;11.530;2024-02-21T23:47:54;1.30;;;1.20;;
56599;SDS011;51832;48.152;11.530;2024-02-21T23:52:54;1.88;;;1.13;;
56599;SDS011;51832;48.152;11.530;2024-02-21T23:57:55;1.65;;;1.17;;
